Thursday, May 25, 2017, 8:30 AM EDT

KRDG, Reading Regional Airport

Location: Reading, PA, United States Lat: 40.367
Local Time: 8:30 AM EDT (12:30 GMT) Lon: -75.967
Time Zone: US/Eastern Elev: 344 ft

Show me the last for .
Show Decoded

2017-05-25 08:22 METAR KRDG 251222Z 10007KT 2SM R36/5500VP6000FT +RA BR OVC011 13/13 A2956 RMK
                 AO2 P0006 T01330128 =
2017-05-25 07:54 METAR KRDG 251154Z 08009KT 8SM -RA OVC011 14/13 A2956 RMK AO2 SLP013 P0002 60024
                 70024 T01390128 10150 20133 56023 =
2017-05-25 06:54 METAR KRDG 251054Z 07008KT 030V100 10SM -RA OVC010 13/13 A2959 RMK AO2
                 RAE0956B16 SLP024 P0003 T01330128 =
2017-05-25 05:54 METAR KRDG 250954Z 06010KT 10SM -RA OVC011 13/13 A2958 RMK AO2 PRESFR SLP021
                 P0003 T01330128 =
2017-05-25 04:54 METAR KRDG 250854Z AUTO 09007KT 10SM -RA OVC011 13/13 A2963 RMK AO2 SLP036 P0004
                 60016 T01330133 58025 =
2017-05-25 03:54 METAR KRDG 250754Z 11003KT 10SM -RA OVC012 13/13 A2965 RMK AO2 SLP043 P0012
                 T01330133 =
2017-05-25 02:54 METAR KRDG 250654Z 09009G16KT 050V130 10SM -RA OVC014 14/13 A2969 RMK AO2 RAB16
                 SLP058 P0000 T01390128 =
2017-05-25 01:54 METAR KRDG 250554Z 09012G23KT 10SM OVC020 15/11 A2970 RMK AO2 SLP060 T01500111
                 10189 20150 58018 =
2017-05-25 01:21 METAR KRDG 250521Z 09006KT 10SM BKN023 15/11 A2972 RMK AO2 T01500111 =
2017-05-25 00:54 METAR KRDG 250454Z 08006KT 10SM FEW024 15/11 A2973 RMK AO2 SLP069 T01500111
                 402330133 =
2017-05-24 23:54 METAR KRDG 250354Z 10009G17KT 070V150 10SM BKN085 16/11 A2974 RMK AO2 SLP074
                 T01610111 =
2017-05-24 22:54 METAR KRDG 250254Z 12006KT 10SM OVC085 17/09 A2976 RMK AO2 SLP080 T01670094
                 50004 =
2017-05-24 21:54 METAR KRDG 250154Z 13009G16KT 10SM FEW042 BKN050 OVC090 18/11 A2977 RMK AO2
                 SLP084 T01780106 =
2017-05-24 20:54 METAR KRDG 250054Z 13008G16KT 10SM SCT048 18/11 A2975 RMK AO2 SLP078 T01830106 =
2017-05-24 19:54 METAR KRDG 242354Z 14011KT 10SM BKN048 19/10 A2974 RMK AO2 SLP076 T01890100
                 10233 20189 53001 =
2017-05-24 18:54 METAR KRDG 242254Z AUTO 13008G16KT 10SM SCT043 BKN060 20/11 A2972 RMK AO2 SLP067
                 T02000111 =
2017-05-24 17:54 METAR KRDG 242154Z AUTO 14008KT 10SM BKN046 BKN065 21/12 A2972 RMK AO2 SLP069
                 T02110122 =
2017-05-24 16:54 METAR KRDG 242054Z AUTO 14009G16KT 10SM BKN047 BKN110 21/12 A2974 RMK AO2 PRESRR
                 SLP074 T02110117 53006 =
2017-05-24 15:54 METAR KRDG 241954Z AUTO 15010KT 10SM BKN048 BKN055 22/12 A2971 RMK AO2 SLP065
                 T02170117 =
2017-05-24 14:54 METAR KRDG 241854Z AUTO 13008KT 10SM BKN055 22/11 A2972 RMK AO2 SLP069 T02170111
                 =
2017-05-24 13:54 METAR KRDG 241754Z AUTO 14004G14KT 10SM FEW047 SCT055 22/11 A2972 RMK AO2 SLP068
                 T02220111 10222 20150 55004 =
2017-05-24 12:54 METAR KRDG 241654Z AUTO 14009G19KT 10SM CLR 22/11 A2972 RMK AO2 SLP067 T02170111
                 =
2017-05-24 11:54 METAR KRDG 241554Z AUTO 08008G15KT 070V130 10SM CLR 21/10 A2973 RMK AO2 SLP072
                 T02060100 =
2017-05-24 10:54 METAR KRDG 241454Z AUTO 12004KT 10SM SCT026 SCT031 19/13 A2973 RMK AO2 SLP073
                 T01890133 50000 =
2017-05-24 10:38 METAR KRDG 241438Z AUTO 07006KT 10SM BKN023 19/13 A2973 RMK AO2 T01890128 =
2017-05-24 09:54 METAR KRDG 241354Z AUTO 02003KT 10SM FEW014 17/14 A2974 RMK AO2 SLP073 T01670144
                 =
2017-05-24 08:54 METAR KRDG 241254Z AUTO 01005KT 9SM OVC085 15/14 A2976 RMK AO2 SLP082 T01500144
                 =

Support USWX by starting your Amazon purchase here.